createdAt,value
2023-01-04T00:01:09.233Z,96780
2023-01-04T00:02:18.090Z,96777
2023-01-04T00:03:26.703Z,96781
2023-01-04T00:04:36.286Z,96776
2023-01-04T00:05:45.992Z,96777
2023-01-04T00:06:55.655Z,96779
2023-01-04T00:08:05.360Z,96779
2023-01-04T00:09:14.114Z,96772
2023-01-04T00:10:23.766Z,96773
2023-01-04T00:11:32.568Z,96772
2023-01-04T00:12:41.268Z,96773
2023-01-04T00:13:50.047Z,96779
2023-01-04T00:14:59.739Z,96772
2023-01-04T00:16:09.456Z,96775
2023-01-04T00:17:17.075Z,96771
2023-01-04T00:18:25.862Z,96767
2023-01-04T00:19:35.520Z,96765
2023-01-04T00:20:44.178Z,96760
2023-01-04T00:21:53.896Z,96760
2023-01-04T00:23:02.568Z,96761
2023-01-04T00:24:11.289Z,96763
2023-01-04T00:25:21.042Z,96767
2023-01-04T00:26:29.771Z,96770
2023-01-04T00:27:39.446Z,96769
2023-01-04T00:28:54.079Z,96770
2023-01-04T00:29:57.887Z,96768
2023-01-04T00:31:07.751Z,96763
2023-01-04T00:32:15.374Z,96759
2023-01-04T00:33:25.071Z,96761
2023-01-04T00:34:33.772Z,96758
2023-01-04T00:35:46.029Z,96755
2023-01-04T00:36:52.163Z,96759
2023-01-04T00:38:00.918Z,96759
2023-01-04T00:39:09.714Z,96757
2023-01-04T00:40:19.356Z,96756
2023-01-04T00:41:57.279Z,96759
2023-01-04T00:42:39.757Z,96755
2023-01-04T00:43:49.519Z,96756
2023-01-04T00:44:58.217Z,96754
2023-01-04T00:46:07.970Z,96754
2023-01-04T00:47:17.726Z,96751
2023-01-04T00:48:27.527Z,96747
2023-01-04T00:49:38.255Z,96751
2023-01-04T00:50:46.006Z,96747
2023-01-04T00:51:55.857Z,96748
2023-01-04T00:53:05.567Z,96749
2023-01-04T00:54:15.281Z,96746
2023-01-04T00:55:25.020Z,96744
2023-01-04T00:56:33.773Z,96739
2023-01-04T00:57:42.482Z,96743
2023-01-04T00:58:52.197Z,96739
2023-01-04T01:00:01.065Z,96742
2023-01-04T01:01:09.852Z,96736
2023-01-04T01:02:18.683Z,96737
2023-01-04T01:03:30.962Z,96737
2023-01-04T01:04:38.881Z,96736
2023-01-04T01:05:47.611Z,96731
2023-01-04T01:06:57.262Z,96729
2023-01-04T01:08:08.061Z,96727
2023-01-04T01:09:15.743Z,96721
2023-01-04T01:10:24.466Z,96723
2023-01-04T01:11:34.213Z,96720
2023-01-04T01:12:43.159Z,96722
2023-01-04T01:13:53.912Z,96721
2023-01-04T01:15:02.622Z,96722
2023-01-04T01:16:12.417Z,96719
2023-01-04T01:17:23.092Z,96724
2023-01-04T01:18:31.862Z,96723
2023-01-04T01:19:40.576Z,96732
2023-01-04T01:20:49.309Z,96723
2023-01-04T01:21:58.363Z,96720
2023-01-04T01:23:07.832Z,96722
2023-01-04T01:24:15.572Z,96725
2023-01-04T01:25:25.226Z,96723
2023-01-04T01:26:34.966Z,96723
2023-01-04T01:27:43.666Z,96729
2023-01-04T01:28:52.359Z,96728
2023-01-04T01:30:01.042Z,96738
2023-01-04T01:31:09.771Z,96733
2023-01-04T01:32:19.408Z,96734
2023-01-04T01:33:28.126Z,96738
2023-01-04T01:34:36.811Z,96738
2023-01-04T01:35:46.494Z,96740
2023-01-04T01:36:56.164Z,96743
2023-01-04T01:38:05.984Z,96742
2023-01-04T01:39:15.557Z,96748
2023-01-04T01:40:24.279Z,96750
2023-01-04T01:41:33.965Z,96748
2023-01-04T01:42:43.633Z,96750
2023-01-04T01:43:53.378Z,96751
2023-01-04T01:45:02.047Z,96749
2023-01-04T01:46:09.847Z,96752
2023-01-04T01:47:19.479Z,96752
2023-01-04T01:48:28.214Z,96757
2023-01-04T01:49:37.885Z,96756
2023-01-04T01:50:47.595Z,96755
2023-01-04T01:51:55.363Z,96756
2023-01-04T01:53:05.072Z,96753
2023-01-04T01:54:14.827Z,96746
2023-01-04T01:55:22.561Z,96746
2023-01-04T01:56:32.245Z,96746
2023-01-04T01:57:41.944Z,96748
2023-01-04T01:58:51.716Z,96751
2023-01-04T02:00:01.456Z,96750
2023-01-04T02:01:10.139Z,96754
2023-01-04T02:02:19.939Z,96754
2023-01-04T02:03:29.542Z,96755
2023-01-04T02:04:38.160Z,96755
2023-01-04T02:05:46.839Z,96755
2023-01-04T02:06:55.528Z,96754
2023-01-04T02:08:04.184Z,96753
2023-01-04T02:09:13.920Z,96748
2023-01-04T02:10:21.594Z,96754
2023-01-04T02:11:31.265Z,96753
2023-01-04T02:12:40.928Z,96748
2023-01-04T02:13:48.600Z,96749
2023-01-04T02:14:58.278Z,96749
2023-01-04T02:16:07.056Z,96747
2023-01-04T02:17:15.660Z,96745
2023-01-04T02:18:25.350Z,96742
2023-01-04T02:19:34.010Z,96739
2023-01-04T02:20:42.700Z,96740
2023-01-04T02:21:52.361Z,96744
2023-01-04T02:23:02.029Z,96751
2023-01-04T02:24:11.767Z,96755
2023-01-04T02:25:21.417Z,96754
2023-01-04T02:26:29.108Z,96755
2023-01-04T02:27:38.781Z,96751
2023-01-04T02:28:48.487Z,96751
2023-01-04T02:29:58.169Z,96747
2023-01-04T02:31:07.945Z,96744
2023-01-04T02:32:17.644Z,96739
2023-01-04T02:33:27.334Z,96733
2023-01-04T02:34:35.016Z,96729
2023-01-04T02:35:43.711Z,96730
2023-01-04T02:36:53.841Z,96732
2023-01-04T02:38:01.403Z,96729
2023-01-04T02:39:11.111Z,96734
2023-01-04T02:40:19.778Z,96735
2023-01-04T02:41:28.412Z,96730
2023-01-04T02:42:38.130Z,96729
2023-01-04T02:43:47.899Z,96724
2023-01-04T02:44:57.654Z,96725
2023-01-04T02:46:06.429Z,96724
2023-01-04T02:47:15.985Z,96724
2023-01-04T02:48:25.677Z,96731
2023-01-04T02:49:34.371Z,96724
2023-01-04T02:50:43.056Z,96724
2023-01-04T02:51:52.798Z,96723
2023-01-04T02:53:01.474Z,96726
2023-01-04T02:54:11.223Z,96724
2023-01-04T02:55:19.926Z,96732
2023-01-04T02:56:28.577Z,96728
2023-01-04T02:57:38.240Z,96734
2023-01-04T02:58:45.982Z,96728
2023-01-04T02:59:54.640Z,96734
2023-01-04T03:01:04.336Z,96725
2023-01-04T03:02:13.156Z,96725
2023-01-04T03:03:20.902Z,96714
2023-01-04T03:04:31.358Z,96711
2023-01-04T03:05:40.030Z,96712
2023-01-04T03:06:49.744Z,96709
2023-01-04T03:07:58.401Z,96712
2023-01-04T03:09:07.085Z,96712
2023-01-04T03:10:16.737Z,96714
2023-01-04T03:11:26.404Z,96713
2023-01-04T03:12:35.110Z,96704
2023-01-04T03:13:43.781Z,96703
2023-01-04T03:14:53.505Z,96701
2023-01-04T03:16:03.271Z,96703
2023-01-04T03:17:12.821Z,96696
2023-01-04T03:18:21.504Z,96700
2023-01-04T03:19:31.207Z,96694
2023-01-04T03:20:40.871Z,96696
2023-01-04T03:21:50.547Z,96696
2023-01-04T03:22:59.243Z,96694
2023-01-04T03:24:07.978Z,96700
2023-01-04T03:25:17.709Z,96698
2023-01-04T03:26:26.375Z,96696
2023-01-04T03:27:35.033Z,96695
2023-01-04T03:28:44.709Z,96701
2023-01-04T03:29:52.448Z,96699
2023-01-04T03:31:01.258Z,96702
2023-01-04T03:32:10.857Z,96702
2023-01-04T03:33:19.487Z,96704
2023-01-04T03:34:29.224Z,96705
2023-01-04T03:35:38.010Z,96705
2023-01-04T03:36:46.679Z,96704
2023-01-04T03:37:56.363Z,96709
2023-01-04T03:39:04.029Z,96707
2023-01-04T03:40:12.737Z,96702
2023-01-04T03:41:21.475Z,96702
2023-01-04T03:42:31.150Z,96701
2023-01-04T03:43:40.916Z,96697
2023-01-04T03:44:49.633Z,96695
2023-01-04T03:45:59.312Z,96695
2023-01-04T03:47:09.064Z,96691
2023-01-04T03:48:17.731Z,96692
2023-01-04T03:49:27.396Z,96692
2023-01-04T03:50:36.063Z,96685
2023-01-04T03:51:45.881Z,96693
2023-01-04T03:52:55.594Z,96691
2023-01-04T03:54:03.299Z,96690
2023-01-04T03:55:12.025Z,96693
2023-01-04T03:56:21.745Z,96692
2023-01-04T03:57:30.512Z,96685
2023-01-04T03:58:40.286Z,96689
2023-01-04T03:59:49.001Z,96692
2023-01-04T04:00:58.702Z,96688
2023-01-04T04:02:07.480Z,96687
2023-01-04T04:03:17.115Z,96681
2023-01-04T04:04:26.903Z,96685
2023-01-04T04:05:36.538Z,96690
2023-01-04T04:06:44.243Z,96685
2023-01-04T04:07:52.916Z,96684
2023-01-04T04:09:01.660Z,96681
2023-01-04T04:10:11.332Z,96677
2023-01-04T04:11:21.080Z,96674
2023-01-04T04:12:28.792Z,96673
2023-01-04T04:13:37.623Z,96675
2023-01-04T04:14:47.329Z,96669
2023-01-04T04:15:57.049Z,96667
2023-01-04T04:17:06.721Z,96666
2023-01-04T04:18:16.474Z,96663
2023-01-04T04:19:25.169Z,96666
2023-01-04T04:20:33.805Z,96666
2023-01-04T04:21:43.607Z,96668
2023-01-04T04:22:52.265Z,96670
2023-01-04T04:24:01.934Z,96675
2023-01-04T04:25:10.608Z,96669
2023-01-04T04:26:19.277Z,96666
2023-01-04T04:27:29.009Z,96667
2023-01-04T04:28:37.723Z,96668
2023-01-04T04:29:47.380Z,96665
2023-01-04T04:30:56.151Z,96665
2023-01-04T04:32:05.856Z,96665
2023-01-04T04:33:15.569Z,96667
2023-01-04T04:34:24.249Z,96667
2023-01-04T04:35:32.942Z,96666
2023-01-04T04:36:42.641Z,96666
2023-01-04T04:37:51.371Z,96666
2023-01-04T04:39:00.078Z,96663
2023-01-04T04:40:08.797Z,96660
2023-01-04T04:41:18.443Z,96659
2023-01-04T04:42:28.129Z,96657
2023-01-04T04:43:37.776Z,96656
2023-01-04T04:44:46.513Z,96655
2023-01-04T04:45:56.297Z,96648
2023-01-04T04:47:04.895Z,96647
2023-01-04T04:48:14.569Z,96646
2023-01-04T04:49:24.238Z,96646
2023-01-04T04:50:32.919Z,96647
2023-01-04T04:51:42.627Z,96647
2023-01-04T04:52:55.869Z,96641
2023-01-04T04:54:00.950Z,96642
2023-01-04T04:55:10.598Z,96641
2023-01-04T04:56:18.483Z,96639
2023-01-04T04:57:27.161Z,96640
2023-01-04T04:58:36.846Z,96639
2023-01-04T04:59:45.505Z,96640
2023-01-04T05:00:55.291Z,96637
2023-01-04T05:02:05.111Z,96642
2023-01-04T05:03:14.662Z,96635
2023-01-04T05:04:23.344Z,96635
2023-01-04T05:05:32.992Z,96634
2023-01-04T05:06:42.678Z,96637
2023-01-04T05:07:51.545Z,96634
2023-01-04T05:09:00.249Z,96638
2023-01-04T05:10:08.999Z,96636
2023-01-04T05:11:18.669Z,96631
2023-01-04T05:12:28.341Z,96634
2023-01-04T05:13:36.010Z,96634
2023-01-04T05:14:46.471Z,96635
2023-01-04T05:15:56.543Z,96633
2023-01-04T05:17:06.407Z,96635
2023-01-04T05:18:16.081Z,96633
2023-01-04T05:19:24.775Z,96631
2023-01-04T05:20:34.512Z,96631
2023-01-04T05:21:44.173Z,96631
2023-01-04T05:22:52.889Z,96629
2023-01-04T05:24:01.628Z,96626
2023-01-04T05:25:11.354Z,96627
2023-01-04T05:26:19.014Z,96628
2023-01-04T05:27:27.673Z,96628
2023-01-04T05:28:36.377Z,96627
2023-01-04T05:29:46.118Z,96633
2023-01-04T05:30:56.154Z,96628
2023-01-04T05:32:04.920Z,96628
2023-01-04T05:33:13.510Z,96629
2023-01-04T05:34:23.169Z,96631
2023-01-04T05:35:31.860Z,96632
2023-01-04T05:36:40.961Z,96636
2023-01-04T05:37:49.757Z,96638
2023-01-04T05:38:57.607Z,96633
2023-01-04T05:40:07.339Z,96633
2023-01-04T05:41:17.089Z,96639
2023-01-04T05:42:26.794Z,96638
2023-01-04T05:43:36.506Z,96636
2023-01-04T05:44:45.232Z,96637
2023-01-04T05:45:54.155Z,96640
2023-01-04T05:47:02.640Z,96640
2023-01-04T05:48:13.365Z,96644
2023-01-04T05:49:23.158Z,96645
2023-01-04T05:50:31.829Z,96643
2023-01-04T05:51:40.593Z,96643
2023-01-04T05:52:50.261Z,96642
2023-01-04T05:53:57.934Z,96640
2023-01-04T05:55:06.595Z,96638
2023-01-04T05:56:15.271Z,96638
2023-01-04T05:57:23.896Z,96637
2023-01-04T05:58:34.552Z,96633
2023-01-04T05:59:43.254Z,96635
2023-01-04T06:00:51.924Z,96636
2023-01-04T06:02:01.699Z,96638
2023-01-04T06:03:11.375Z,96639
2023-01-04T06:04:19.902Z,96640
2023-01-04T06:05:29.598Z,96644
2023-01-04T06:06:38.247Z,96644
2023-01-04T06:07:47.904Z,96644
2023-01-04T06:08:56.565Z,96643
2023-01-04T06:10:06.282Z,96646
2023-01-04T06:11:16.039Z,96637
2023-01-04T06:12:26.713Z,96643
2023-01-04T06:13:35.347Z,96646
2023-01-04T06:14:44.002Z,96645
2023-01-04T06:15:53.654Z,96646
2023-01-04T06:17:03.410Z,96642
2023-01-04T06:18:13.467Z,96647
2023-01-04T06:19:20.655Z,96649
2023-01-04T06:20:30.370Z,96644
2023-01-04T06:21:38.027Z,96655
2023-01-04T06:22:47.713Z,96643
2023-01-04T06:23:57.387Z,96647
2023-01-04T06:25:07.038Z,96652
2023-01-04T06:26:16.712Z,96651
2023-01-04T06:27:26.361Z,96652
2023-01-04T06:28:40.627Z,96651
2023-01-04T06:29:45.727Z,96648
2023-01-04T06:30:54.426Z,96649
2023-01-04T06:32:03.086Z,96652
2023-01-04T06:33:11.805Z,96650
2023-01-04T06:34:25.354Z,96643
2023-01-04T06:35:32.225Z,96646
2023-01-04T06:36:40.891Z,96652
2023-01-04T06:37:49.539Z,96656
2023-01-04T06:38:59.215Z,96651
2023-01-04T06:40:06.900Z,96657
2023-01-04T06:41:16.564Z,96654
2023-01-04T06:42:26.244Z,96655
2023-01-04T06:43:34.909Z,96652
2023-01-04T06:44:44.676Z,96648
2023-01-04T06:45:54.285Z,96648
2023-01-04T06:47:03.991Z,96645
2023-01-04T06:48:18.011Z,96638
2023-01-04T06:49:23.353Z,96644
2023-01-04T06:50:32.051Z,96641
2023-01-04T06:51:41.813Z,96634
2023-01-04T06:52:50.398Z,96636
2023-01-04T06:54:00.137Z,96629
2023-01-04T06:55:08.745Z,96631
2023-01-04T06:56:17.384Z,96632
2023-01-04T06:57:27.066Z,96628
2023-01-04T06:58:35.705Z,96630
2023-01-04T06:59:45.381Z,96625
2023-01-04T07:00:55.100Z,96625
2023-01-04T07:02:03.838Z,96620
2023-01-04T07:03:15.840Z,96618
2023-01-04T07:04:23.167Z,96617
2023-01-04T07:05:31.728Z,96621
2023-01-04T07:06:40.407Z,96620
2023-01-04T07:07:50.082Z,96616
2023-01-04T07:08:59.786Z,96617
2023-01-04T07:10:09.872Z,96612
2023-01-04T07:11:18.145Z,96612
2023-01-04T07:12:27.808Z,96611
2023-01-04T07:13:36.465Z,96610
2023-01-04T07:14:46.157Z,96616
2023-01-04T07:15:53.854Z,96615
2023-01-04T07:17:03.530Z,96614
2023-01-04T07:18:13.166Z,96618
2023-01-04T07:19:20.830Z,96615
2023-01-04T07:20:30.521Z,96618
2023-01-04T07:21:39.163Z,96617
2023-01-04T07:22:48.843Z,96621
2023-01-04T07:23:58.495Z,96622
2023-01-04T07:25:06.152Z,96620
2023-01-04T07:26:15.842Z,96625
2023-01-04T07:27:25.490Z,96621
2023-01-04T07:28:34.163Z,96618
2023-01-04T07:29:42.846Z,96620
2023-01-04T07:30:51.537Z,96616
2023-01-04T07:32:00.247Z,96619
2023-01-04T07:33:10.950Z,96620
2023-01-04T07:34:20.562Z,96621
2023-01-04T07:35:29.235Z,96619
2023-01-04T07:36:38.879Z,96617
2023-01-04T07:37:52.259Z,96616
2023-01-04T07:38:58.231Z,96620
2023-01-04T07:40:06.893Z,96618
2023-01-04T07:41:16.550Z,96615
2023-01-04T07:42:26.202Z,96619
2023-01-04T07:43:34.882Z,96621
2023-01-04T07:44:44.528Z,96621
2023-01-04T07:45:54.332Z,96625
2023-01-04T07:47:01.940Z,96631
2023-01-04T07:48:10.643Z,96632
2023-01-04T07:49:19.352Z,96624
2023-01-04T07:50:28.031Z,96629
2023-01-04T07:51:37.640Z,96622
2023-01-04T07:52:45.337Z,96623
2023-01-04T07:53:55.005Z,96614
2023-01-04T07:55:04.686Z,96615
2023-01-04T07:56:18.419Z,96599
2023-01-04T07:57:23.009Z,96597
2023-01-04T07:58:31.720Z,96599
2023-01-04T07:59:40.341Z,96601
2023-01-04T08:00:51.036Z,96602
2023-01-04T08:02:00.848Z,96601
2023-01-04T08:03:09.388Z,96601
2023-01-04T08:04:19.060Z,96597
2023-01-04T08:05:28.691Z,96587
2023-01-04T08:06:37.384Z,96593
2023-01-04T08:07:47.094Z,96591
2023-01-04T08:08:56.743Z,96593
2023-01-04T08:10:06.403Z,96587
2023-01-04T08:11:15.108Z,96587
2023-01-04T08:12:23.776Z,96584
2023-01-04T08:13:33.441Z,96586
2023-01-04T08:14:41.105Z,96596
2023-01-04T08:15:50.834Z,96594
2023-01-04T08:17:00.458Z,96587
2023-01-04T08:18:10.155Z,96582
2023-01-04T08:19:20.850Z,96583
2023-01-04T08:20:28.519Z,96584
2023-01-04T08:21:38.220Z,96584
2023-01-04T08:22:47.869Z,96580
2023-01-04T08:23:55.551Z,96582
2023-01-04T08:25:05.212Z,96583
2023-01-04T08:26:14.911Z,96582
2023-01-04T08:27:24.621Z,96592
2023-01-04T08:28:34.287Z,96592
2023-01-04T08:29:43.987Z,96591
2023-01-04T08:30:53.692Z,96589
2023-01-04T08:32:04.324Z,96594
2023-01-04T08:33:12.996Z,96597
2023-01-04T08:34:21.656Z,96593
2023-01-04T08:35:30.331Z,96588
2023-01-04T08:36:38.995Z,96583
2023-01-04T08:37:48.784Z,96587
2023-01-04T08:39:00.310Z,96587
2023-01-04T08:40:05.974Z,96584
2023-01-04T08:41:31.243Z,96584
2023-01-04T08:42:30.917Z,96581
2023-01-04T08:43:34.942Z,96582
2023-01-04T08:44:44.630Z,96580
2023-01-04T08:45:55.381Z,96583
2023-01-04T08:47:05.150Z,96578
2023-01-04T08:48:12.713Z,96584
2023-01-04T08:49:22.387Z,96582
2023-01-04T08:50:32.024Z,96588
2023-01-04T08:51:39.678Z,96584
2023-01-04T08:52:48.374Z,96578
2023-01-04T08:53:57.063Z,96582
2023-01-04T08:55:12.143Z,96580
2023-01-04T08:56:16.346Z,96577
2023-01-04T08:57:25.098Z,96575
2023-01-04T08:58:34.771Z,96582
2023-01-04T08:59:43.448Z,96580
2023-01-04T09:00:52.120Z,96583
2023-01-04T09:02:05.547Z,96586
2023-01-04T09:03:11.586Z,96589
2023-01-04T09:04:20.266Z,96581
2023-01-04T09:05:30.891Z,96583
2023-01-04T09:06:40.616Z,96584
2023-01-04T09:07:50.231Z,96582
2023-01-04T09:08:59.929Z,96582
2023-01-04T09:10:08.617Z,96583
2023-01-04T09:11:18.303Z,96576
2023-01-04T09:12:26.965Z,96575
2023-01-04T09:13:35.621Z,96572
2023-01-04T09:14:44.306Z,96572
2023-01-04T09:15:54.034Z,96567
2023-01-04T09:17:03.674Z,96569
2023-01-04T09:18:31.529Z,96571
2023-01-04T09:19:22.674Z,96567
2023-01-04T09:20:31.753Z,96569
2023-01-04T09:21:40.484Z,96562
2023-01-04T09:22:50.137Z,96568
2023-01-04T09:23:58.873Z,96571
2023-01-04T09:25:07.571Z,96566
2023-01-04T09:26:17.209Z,96568
2023-01-04T09:27:24.887Z,96564
2023-01-04T09:28:33.561Z,96569
2023-01-04T09:29:43.247Z,96561
2023-01-04T09:30:53.044Z,96561
2023-01-04T09:32:02.656Z,96558
2023-01-04T09:33:12.259Z,96560
2023-01-04T09:34:20.950Z,96562
2023-01-04T09:35:30.585Z,96559
2023-01-04T09:36:39.261Z,96562
2023-01-04T09:37:47.910Z,96559
2023-01-04T09:38:57.595Z,96558
2023-01-04T09:40:07.268Z,96557
2023-01-04T09:41:17.006Z,96560
2023-01-04T09:42:29.251Z,96562
2023-01-04T09:43:36.317Z,96557
2023-01-04T09:45:21.777Z,96557
2023-01-04T09:45:56.743Z,96554
2023-01-04T09:47:05.539Z,96543
2023-01-04T09:48:16.887Z,96551
2023-01-04T09:49:25.775Z,96548
2023-01-04T09:50:34.513Z,96558
2023-01-04T09:51:44.173Z,96556
2023-01-04T09:52:53.953Z,96551
2023-01-04T09:54:03.541Z,96548
2023-01-04T09:55:36.642Z,96552
2023-01-04T09:56:23.905Z,96550
2023-01-04T09:57:33.591Z,96546
2023-01-04T09:58:43.265Z,96551
2023-01-04T09:59:51.919Z,96550
2023-01-04T10:01:01.682Z,96555
2023-01-04T10:02:10.452Z,96552
2023-01-04T10:03:20.334Z,96546
2023-01-04T10:04:27.812Z,96543
2023-01-04T10:05:37.506Z,96546
2023-01-04T10:06:47.186Z,96544
2023-01-04T10:07:56.936Z,96544
2023-01-04T10:09:05.578Z,96541
2023-01-04T10:10:14.232Z,96543
2023-01-04T10:11:23.919Z,96542
2023-01-04T10:12:34.450Z,96538
2023-01-04T10:13:44.155Z,96544
2023-01-04T10:14:51.815Z,96540
2023-01-04T10:16:01.551Z,96540
2023-01-04T10:17:16.518Z,96542
2023-01-04T10:21:54.019Z,96537
2023-01-04T10:23:03.602Z,96530
2023-01-04T10:24:13.303Z,96531
2023-01-04T10:25:22.984Z,96527
2023-01-04T10:26:31.654Z,96527
2023-01-04T10:27:42.977Z,96526
2023-01-04T10:28:50.963Z,96524
2023-01-04T10:29:59.643Z,96527
2023-01-04T10:31:38.362Z,96526
2023-01-04T10:32:20.008Z,96515
2023-01-04T10:33:28.651Z,96519
2023-01-04T10:34:38.334Z,96522
2023-01-04T10:35:45.980Z,96509
2023-01-04T10:36:54.651Z,96503
2023-01-04T10:38:03.318Z,96495
2023-01-04T10:39:11.981Z,96496
2023-01-04T10:40:21.659Z,96498
2023-01-04T10:41:30.334Z,96495
2023-01-04T10:42:39.052Z,96492
2023-01-04T10:44:10.509Z,96491
2023-01-04T10:45:03.431Z,96486
2023-01-04T10:46:10.045Z,96476
2023-01-04T10:47:19.756Z,96478
2023-01-04T10:48:29.427Z,96475
2023-01-04T10:49:39.118Z,96478
2023-01-04T10:50:46.813Z,96485
2023-01-04T10:51:55.489Z,96483
2023-01-04T10:53:05.184Z,96486
2023-01-04T10:54:14.880Z,96481
2023-01-04T10:55:24.534Z,96474
2023-01-04T10:56:32.207Z,96468
2023-01-04T10:57:40.895Z,96471
2023-01-04T10:58:49.556Z,96474
2023-01-04T10:59:58.385Z,96472
2023-01-04T11:01:07.991Z,96466
2023-01-04T11:02:16.646Z,96467
2023-01-04T11:03:25.407Z,96465
2023-01-04T11:04:34.981Z,96457
2023-01-04T11:05:44.745Z,96460
2023-01-04T11:06:54.435Z,96446
2023-01-04T11:08:03.107Z,96453
2023-01-04T11:09:13.468Z,96455
2023-01-04T11:10:23.419Z,96452
2023-01-04T11:11:32.136Z,96462
2023-01-04T11:12:40.800Z,96455
2023-01-04T11:13:50.497Z,96450
2023-01-04T11:14:58.189Z,96445
2023-01-04T11:16:07.975Z,96440
2023-01-04T11:17:17.590Z,96447
2023-01-04T11:18:26.277Z,96442
2023-01-04T11:19:35.956Z,96435
2023-01-04T11:20:43.624Z,96432
2023-01-04T11:21:52.369Z,96435
2023-01-04T11:23:02.243Z,96436
2023-01-04T11:24:30.752Z,96438
2023-01-04T11:25:36.863Z,96434
2023-01-04T11:26:31.132Z,96436
2023-01-04T11:27:39.841Z,96436
2023-01-04T11:28:49.537Z,96445
2023-01-04T11:29:58.247Z,96433
2023-01-04T11:31:06.931Z,96435
2023-01-04T11:32:16.711Z,96424
2023-01-04T11:33:25.323Z,96428
2023-01-04T11:34:33.031Z,96424
2023-01-04T11:35:43.058Z,96425
2023-01-04T11:36:51.354Z,96421
2023-01-04T11:38:01.058Z,96420
2023-01-04T11:39:08.747Z,96413
2023-01-04T11:40:17.563Z,96416
2023-01-04T11:41:27.281Z,96412
2023-01-04T11:42:34.993Z,96411
2023-01-04T11:43:43.660Z,96417
2023-01-04T11:44:53.337Z,96409
2023-01-04T11:46:02.136Z,96414
2023-01-04T11:47:11.781Z,96414
2023-01-04T11:48:19.566Z,96406
2023-01-04T11:49:29.171Z,96409
2023-01-04T11:50:38.826Z,96412
2023-01-04T11:51:47.538Z,96406
2023-01-04T11:52:57.225Z,96410
2023-01-04T11:54:05.902Z,96414
2023-01-04T11:55:14.540Z,96410
2023-01-04T11:56:24.213Z,96414
2023-01-04T11:57:33.914Z,96410
2023-01-04T11:58:43.609Z,96407
2023-01-04T11:59:53.308Z,96400
2023-01-04T12:01:00.991Z,96400
2023-01-04T12:02:10.788Z,96397
2023-01-04T12:03:21.342Z,96386
2023-01-04T12:04:30.517Z,96385
2023-01-04T12:05:39.708Z,96385
2023-01-04T12:06:48.358Z,96389
2023-01-04T12:07:57.042Z,96386
2023-01-04T12:09:06.754Z,96386
2023-01-04T12:10:15.450Z,96395
2023-01-04T12:11:24.131Z,96378
2023-01-04T12:12:32.791Z,96383
2023-01-04T12:13:41.476Z,96378
2023-01-04T12:14:51.159Z,96372
2023-01-04T12:15:59.839Z,96369
2023-01-04T12:17:09.499Z,96369
2023-01-04T12:18:19.157Z,96366
2023-01-04T12:19:26.853Z,96374
2023-01-04T12:20:36.524Z,96371
2023-01-04T12:21:46.183Z,96364
2023-01-04T12:22:54.875Z,96365
2023-01-04T12:24:04.556Z,96368
2023-01-04T12:25:12.227Z,96364
2023-01-04T12:26:20.898Z,96363
2023-01-04T12:27:30.575Z,96365
2023-01-04T12:28:38.240Z,96368
2023-01-04T12:29:46.920Z,96356
2023-01-04T12:30:56.593Z,96362
2023-01-04T12:32:05.356Z,96355
2023-01-04T12:33:15.062Z,96353
2023-01-04T12:34:23.854Z,96352
2023-01-04T12:35:32.577Z,96354
2023-01-04T12:36:42.301Z,96354
2023-01-04T12:37:49.975Z,96355
2023-01-04T12:38:59.634Z,96345
2023-01-04T12:40:10.391Z,96346
2023-01-04T12:41:20.040Z,96346
2023-01-04T12:42:28.703Z,96344
2023-01-04T12:43:43.173Z,96346
2023-01-04T12:44:49.064Z,96343
2023-01-04T12:45:58.874Z,96336
2023-01-04T12:47:09.518Z,96332
2023-01-04T12:48:18.168Z,96321
2023-01-04T12:49:26.852Z,96316
2023-01-04T12:50:38.387Z,96319
2023-01-04T12:51:58.190Z,96321
2023-01-04T12:53:38.766Z,96326
2023-01-04T12:54:07.420Z,96322
2023-01-04T12:55:15.150Z,96317
2023-01-04T12:56:23.833Z,96314
2023-01-04T12:57:37.179Z,96317
2023-01-04T12:59:23.371Z,96311
2023-01-04T12:59:53.872Z,96310
2023-01-04T13:01:02.623Z,96311
2023-01-04T13:02:11.355Z,96317
2023-01-04T13:03:23.962Z,96319
2023-01-04T13:04:31.576Z,96319
2023-01-04T13:05:57.682Z,96312
2023-01-04T13:06:51.945Z,96317
2023-01-04T13:08:00.600Z,96312
2023-01-04T13:09:09.301Z,96312
2023-01-04T13:10:18.972Z,96311
2023-01-04T13:11:27.648Z,96311
2023-01-04T13:12:37.418Z,96317
2023-01-04T13:13:45.112Z,96314
2023-01-04T13:14:53.796Z,96310
2023-01-04T13:16:03.463Z,96309
2023-01-04T13:17:12.254Z,96304
2023-01-04T13:18:20.844Z,96310
2023-01-04T13:19:30.506Z,96300
2023-01-04T13:20:39.171Z,96299
2023-01-04T13:21:48.852Z,96295
2023-01-04T13:22:56.567Z,96301
2023-01-04T13:24:05.249Z,96298
2023-01-04T13:25:14.938Z,96300
2023-01-04T13:26:23.702Z,96304
2023-01-04T13:27:32.397Z,96306
2023-01-04T13:28:42.045Z,96312
2023-01-04T13:29:51.745Z,96305
2023-01-04T13:31:01.569Z,96315
2023-01-04T13:32:11.113Z,96311
2023-01-04T13:33:28.709Z,96314
2023-01-04T13:34:31.452Z,96311
2023-01-04T13:35:39.197Z,96304
2023-01-04T13:36:47.865Z,96305
2023-01-04T13:37:56.540Z,96302
2023-01-04T13:39:06.240Z,96300
2023-01-04T13:40:15.879Z,96296
2023-01-04T13:41:24.576Z,96301
2023-01-04T13:42:34.226Z,96296
2023-01-04T13:43:43.989Z,96297
2023-01-04T13:45:18.907Z,96297
2023-01-04T13:46:06.651Z,96299
2023-01-04T13:47:13.997Z,96308
2023-01-04T13:48:22.666Z,96293
2023-01-04T13:49:32.382Z,96293
2023-01-04T13:50:41.074Z,96294
2023-01-04T13:51:51.409Z,96289
2023-01-04T13:53:07.337Z,96293
2023-01-04T13:54:12.218Z,96278
2023-01-04T13:55:21.880Z,96297
2023-01-04T13:56:31.551Z,96297
2023-01-04T13:57:41.218Z,96291
2023-01-04T13:58:50.933Z,96288
2023-01-04T13:59:59.617Z,96281
2023-01-04T14:01:08.474Z,96288
2023-01-04T14:02:18.070Z,96287
2023-01-04T14:03:27.682Z,96277
2023-01-04T14:04:36.308Z,96275
2023-01-04T14:05:44.979Z,96273
2023-01-04T14:06:53.718Z,96273
2023-01-04T14:08:03.392Z,96278
2023-01-04T14:09:10.068Z,96276
2023-01-04T14:10:19.897Z,96276
2023-01-04T14:11:29.453Z,96291
2023-01-04T14:12:38.135Z,96277
2023-01-04T14:13:46.814Z,96277
2023-01-04T14:14:55.502Z,96280
2023-01-04T14:16:05.262Z,96282
2023-01-04T14:17:14.893Z,96277
2023-01-04T14:18:23.564Z,96279
2023-01-04T14:19:32.368Z,96284
2023-01-04T14:20:41.980Z,96281
2023-01-04T14:21:50.710Z,96283
2023-01-04T14:22:59.369Z,96281
2023-01-04T14:24:09.112Z,96279
2023-01-04T14:25:19.764Z,96282
2023-01-04T14:26:29.440Z,96282
2023-01-04T14:27:38.205Z,96276
2023-01-04T14:28:50.076Z,96274
2023-01-04T14:29:57.548Z,96276
2023-01-04T14:31:06.329Z,96264
2023-01-04T14:32:14.874Z,96270
2023-01-04T14:33:24.571Z,96263
2023-01-04T14:34:34.241Z,96264
2023-01-04T14:35:46.401Z,96270
2023-01-04T14:36:53.579Z,96268
2023-01-04T14:38:01.265Z,96272
2023-01-04T14:39:10.972Z,96272
2023-01-04T14:40:18.615Z,96272
2023-01-04T14:41:28.299Z,96273
2023-01-04T14:42:37.005Z,96275
2023-01-04T14:43:46.698Z,96272
2023-01-04T14:44:56.371Z,96271
2023-01-04T14:46:04.036Z,96267
2023-01-04T14:47:13.802Z,96262
2023-01-04T14:48:24.103Z,96264
2023-01-04T14:49:31.074Z,96256
2023-01-04T14:50:40.799Z,96259
2023-01-04T14:51:49.514Z,96256
2023-01-04T14:52:58.147Z,96255
2023-01-04T14:54:06.800Z,96264
2023-01-04T14:55:15.466Z,96254